createdAt,value
2019-03-05T00:00:42.512Z,3.40
2019-03-05T00:03:12.985Z,3.00
2019-03-05T00:05:43.064Z,3.23
2019-03-05T00:08:13.224Z,2.80
2019-03-05T00:10:43.510Z,2.33
2019-03-05T00:13:13.384Z,2.37
2019-03-05T00:15:44.293Z,2.00
2019-03-05T00:18:14.213Z,2.00
2019-03-05T00:20:44.066Z,2.50
2019-03-05T00:23:16.360Z,2.43
2019-03-05T00:25:46.529Z,2.47
2019-03-05T00:28:27.722Z,2.80
2019-03-05T00:31:01.509Z,2.03
2019-03-05T00:34:00.404Z,2.30
2019-03-05T00:36:53.145Z,3.73
2019-03-05T00:40:12.047Z,2.97
2019-03-05T00:43:06.490Z,2.50
2019-03-05T00:45:55.900Z,3.13
2019-03-05T00:48:57.005Z,2.57
2019-03-05T00:51:38.812Z,2.63
2019-03-05T00:54:46.496Z,2.83
2019-03-05T00:58:11.565Z,2.47
2019-03-05T01:00:57.226Z,1.93
2019-03-05T01:04:00.380Z,1.60
2019-03-05T01:06:30.309Z,1.60
2019-03-05T01:09:00.584Z,2.30
2019-03-05T01:11:30.963Z,1.73
2019-03-05T01:14:01.231Z,1.70
2019-03-05T01:16:32.823Z,1.60
2019-03-05T01:19:03.251Z,1.70
2019-03-05T01:21:33.411Z,0.80
2019-03-05T01:24:03.273Z,1.00
2019-03-05T01:26:33.077Z,1.13
2019-03-05T01:29:03.470Z,0.90
2019-03-05T01:31:54.614Z,1.03
2019-03-05T01:34:44.089Z,1.10
2019-03-05T01:37:13.930Z,0.80
2019-03-05T01:39:49.943Z,0.93
2019-03-05T01:42:20.214Z,0.97
2019-03-05T01:44:50.724Z,0.87
2019-03-05T01:47:20.513Z,1.10
2019-03-05T01:49:50.631Z,1.20
2019-03-05T01:52:20.558Z,1.10
2019-03-05T01:54:50.290Z,1.23
2019-03-05T01:57:20.284Z,1.33
2019-03-05T01:59:49.972Z,0.90
2019-03-05T02:02:20.329Z,1.10
2019-03-05T02:04:51.108Z,1.10
2019-03-05T02:07:20.958Z,1.30
2019-03-05T02:09:51.027Z,1.17
2019-03-05T02:12:21.018Z,1.00
2019-03-05T02:14:51.030Z,1.10
2019-03-05T02:17:21.208Z,0.93
2019-03-05T02:19:52.289Z,1.33
2019-03-05T02:22:52.111Z,1.20
2019-03-05T02:25:45.466Z,1.10
2019-03-05T02:28:37.401Z,1.70
2019-03-05T02:31:37.618Z,1.37
2019-03-05T02:34:56.159Z,1.47
2019-03-05T02:38:09.708Z,1.70
2019-03-05T02:40:51.602Z,1.40
2019-03-05T02:44:00.099Z,2.13
2019-03-05T02:46:53.644Z,1.17
2019-03-05T02:49:59.337Z,1.33
2019-03-05T02:52:42.077Z,1.43
2019-03-05T02:55:47.687Z,1.47
2019-03-05T02:58:15.572Z,2.17
2019-03-05T03:01:03.354Z,1.30
2019-03-05T03:03:36.926Z,1.43
2019-03-05T03:06:19.459Z,1.57
2019-03-05T03:08:50.074Z,1.60
2019-03-05T03:11:19.991Z,1.40
2019-03-05T03:13:50.372Z,1.73
2019-03-05T03:16:20.537Z,2.23
2019-03-05T03:18:50.287Z,1.60
2019-03-05T03:21:20.386Z,1.90
2019-03-05T03:23:50.539Z,1.73
2019-03-05T03:26:20.798Z,1.73
2019-03-05T03:28:50.912Z,2.00
2019-03-05T03:31:21.187Z,1.77
2019-03-05T03:33:51.037Z,1.90
2019-03-05T03:36:20.876Z,1.90
2019-03-05T03:38:50.792Z,1.90
2019-03-05T03:41:20.522Z,1.93
2019-03-05T03:43:50.708Z,1.83
2019-03-05T03:46:21.075Z,1.80
2019-03-05T03:48:51.139Z,1.40
2019-03-05T03:51:20.996Z,1.40
2019-03-05T03:53:50.884Z,1.67
2019-03-05T03:56:20.898Z,1.70
2019-03-05T03:58:50.924Z,2.30
2019-03-05T04:01:21.057Z,1.40
2019-03-05T04:03:51.731Z,1.37
2019-03-05T04:06:21.818Z,1.87
2019-03-05T04:08:51.555Z,1.43
2019-03-05T04:11:21.735Z,2.00
2019-03-05T04:13:51.833Z,1.50
2019-03-05T04:16:21.944Z,1.57
2019-03-05T04:18:51.960Z,1.77
2019-03-05T04:21:22.096Z,2.27
2019-03-05T04:23:52.916Z,2.40
2019-03-05T04:26:22.768Z,2.40
2019-03-05T04:28:52.935Z,1.90
2019-03-05T04:31:22.777Z,2.40
2019-03-05T04:33:52.943Z,2.60
2019-03-05T04:36:23.116Z,2.50
2019-03-05T04:38:53.684Z,2.27
2019-03-05T04:41:24.507Z,2.17
2019-03-05T04:43:54.710Z,2.03
2019-03-05T04:46:39.265Z,1.90
2019-03-05T04:49:28.063Z,2.17
2019-03-05T04:52:03.896Z,2.03
2019-03-05T04:54:33.752Z,2.23
2019-03-05T04:57:03.589Z,1.90
2019-03-05T04:59:33.247Z,1.97
2019-03-05T05:02:03.304Z,1.60
2019-03-05T05:04:33.403Z,1.87
2019-03-05T05:07:03.244Z,2.07
2019-03-05T05:09:33.000Z,1.80
2019-03-05T05:12:02.765Z,1.90
2019-03-05T05:14:32.543Z,2.20
2019-03-05T05:17:02.503Z,1.63
2019-03-05T05:19:32.854Z,1.77
2019-03-05T05:22:02.692Z,2.17
2019-03-05T05:24:32.525Z,1.87
2019-03-05T05:27:02.719Z,1.40
2019-03-05T05:29:33.250Z,1.83
2019-03-05T05:32:03.262Z,1.60
2019-03-05T05:34:33.503Z,1.93
2019-03-05T05:37:03.715Z,2.00
2019-03-05T05:40:09.714Z,1.90
2019-03-05T05:42:39.696Z,1.90
2019-03-05T05:45:13.404Z,1.93
2019-03-05T05:47:43.400Z,1.70
2019-03-05T05:50:13.499Z,2.10
2019-03-05T05:52:43.703Z,1.87
2019-03-05T05:55:13.505Z,2.00
2019-03-05T05:57:43.721Z,1.77
2019-03-05T06:00:15.881Z,1.93
2019-03-05T06:02:45.804Z,2.17
2019-03-05T06:05:15.476Z,3.37
2019-03-05T06:07:45.742Z,2.73
2019-03-05T06:10:15.497Z,2.57
2019-03-05T06:12:45.719Z,2.23
2019-03-05T06:15:15.731Z,2.90
2019-03-05T06:17:45.556Z,2.70
2019-03-05T06:20:16.317Z,2.90
2019-03-05T06:22:46.498Z,2.33
2019-03-05T06:25:16.341Z,2.97
2019-03-05T06:27:46.530Z,3.40
2019-03-05T06:30:16.827Z,2.33
2019-03-05T06:32:47.044Z,2.30
2019-03-05T06:35:16.911Z,2.20
2019-03-05T06:37:47.091Z,2.20
2019-03-05T06:40:17.493Z,2.30
2019-03-05T06:42:47.428Z,2.30
2019-03-05T06:45:17.679Z,2.40
2019-03-05T06:47:47.358Z,2.93
2019-03-05T06:50:17.559Z,2.80
2019-03-05T06:52:47.493Z,2.60
2019-03-05T06:55:36.593Z,2.53
2019-03-05T06:58:06.388Z,2.50
2019-03-05T07:00:37.824Z,2.53
2019-03-05T07:03:08.516Z,2.67
2019-03-05T07:06:14.235Z,3.10
2019-03-05T07:09:05.352Z,2.80
2019-03-05T07:12:18.016Z,2.10
2019-03-05T07:15:24.502Z,2.10
2019-03-05T07:17:59.019Z,2.53
2019-03-05T07:21:11.757Z,2.30
2019-03-05T07:24:35.192Z,2.67
2019-03-05T07:27:04.896Z,2.87
2019-03-05T07:29:34.708Z,2.77
2019-03-05T07:32:05.035Z,2.80
2019-03-05T07:34:35.457Z,2.77
2019-03-05T07:37:05.698Z,2.80
2019-03-05T07:39:35.493Z,2.90
2019-03-05T07:42:05.731Z,2.80
2019-03-05T07:44:35.798Z,2.47
2019-03-05T07:47:06.016Z,2.83
2019-03-05T07:49:43.738Z,2.57
2019-03-05T07:52:07.696Z,2.30
2019-03-05T07:54:37.729Z,2.90
2019-03-05T07:57:07.958Z,2.47
2019-03-05T07:59:38.055Z,3.07
2019-03-05T08:02:07.894Z,3.27
2019-03-05T08:04:38.932Z,2.50
2019-03-05T08:07:09.088Z,3.53
2019-03-05T08:09:39.607Z,3.07
2019-03-05T08:12:50.233Z,3.57
2019-03-05T08:16:17.815Z,2.90
2019-03-05T08:18:47.615Z,3.07
2019-03-05T08:21:17.433Z,3.40
2019-03-05T08:23:48.577Z,3.13
2019-03-05T08:26:19.117Z,3.57
2019-03-05T08:28:49.097Z,4.07
2019-03-05T08:31:19.226Z,3.80
2019-03-05T08:33:49.439Z,3.40
2019-03-05T08:36:19.346Z,3.23
2019-03-05T08:38:49.167Z,3.83
2019-03-05T08:41:18.839Z,4.10
2019-03-05T08:43:48.612Z,3.50
2019-03-05T08:46:18.398Z,3.50
2019-03-05T08:48:48.236Z,3.33
2019-03-05T08:51:17.976Z,3.50
2019-03-05T08:53:49.756Z,3.90
2019-03-05T08:56:19.633Z,3.60
2019-03-05T08:58:49.409Z,4.30
2019-03-05T09:01:19.220Z,4.03
2019-03-05T09:03:49.714Z,3.70
2019-03-05T09:06:20.154Z,4.90
2019-03-05T09:08:50.247Z,3.97
2019-03-05T09:11:20.610Z,4.23
2019-03-05T09:13:50.423Z,3.57
2019-03-05T09:16:20.136Z,3.73
2019-03-05T09:18:50.359Z,4.10
2019-03-05T09:21:20.942Z,4.57
2019-03-05T09:23:51.160Z,4.30
2019-03-05T09:26:21.582Z,3.93
2019-03-05T09:28:51.474Z,3.60
2019-03-05T09:31:21.128Z,3.20
2019-03-05T09:33:51.390Z,3.33
2019-03-05T09:36:21.131Z,3.30
2019-03-05T09:38:50.885Z,3.57
2019-03-05T09:41:20.679Z,2.73
2019-03-05T09:43:50.696Z,3.50
2019-03-05T09:46:20.664Z,3.43
2019-03-05T09:48:50.890Z,3.47
2019-03-05T09:51:21.031Z,3.00
2019-03-05T09:53:50.880Z,2.60
2019-03-05T09:56:20.688Z,2.87
2019-03-05T09:58:50.529Z,3.23
2019-03-05T10:01:20.522Z,2.90
2019-03-05T10:03:50.352Z,2.33
2019-03-05T10:06:21.242Z,2.73
2019-03-05T10:08:51.103Z,2.50
2019-03-05T10:11:21.072Z,3.00
2019-03-05T10:13:50.811Z,2.10
2019-03-05T10:16:20.808Z,2.63
2019-03-05T10:18:51.125Z,2.10
2019-03-05T10:21:20.940Z,2.40
2019-03-05T10:23:52.179Z,2.60
2019-03-05T10:26:22.739Z,2.20
2019-03-05T10:28:52.616Z,2.30
2019-03-05T10:31:22.457Z,1.90
2019-03-05T10:33:52.195Z,2.20
2019-03-05T10:36:21.959Z,2.30
2019-03-05T10:38:57.404Z,1.83
2019-03-05T10:41:23.322Z,1.37
2019-03-05T10:43:53.135Z,1.90
2019-03-05T10:46:22.853Z,1.60
2019-03-05T10:48:52.677Z,1.80
2019-03-05T10:51:22.491Z,1.80
2019-03-05T10:53:52.560Z,1.80
2019-03-05T10:56:22.597Z,1.67
2019-03-05T10:58:52.518Z,1.90
2019-03-05T11:01:22.741Z,2.90
2019-03-05T11:03:52.730Z,2.30
2019-03-05T11:06:23.314Z,2.70
2019-03-05T11:08:53.250Z,2.53
2019-03-05T11:11:23.223Z,2.63
2019-03-05T11:13:53.282Z,2.40
2019-03-05T11:16:30.757Z,2.73
2019-03-05T11:18:55.403Z,2.10
2019-03-05T11:21:25.185Z,2.27
2019-03-05T11:23:55.145Z,2.40
2019-03-05T11:26:25.330Z,1.67
2019-03-05T11:28:55.891Z,2.20
2019-03-05T11:31:26.184Z,2.03
2019-03-05T11:33:56.425Z,1.73
2019-03-05T11:36:26.303Z,2.23
2019-03-05T11:38:56.319Z,2.20
2019-03-05T11:41:26.665Z,2.27
2019-03-05T11:43:57.419Z,2.67
2019-03-05T11:46:27.190Z,2.47
2019-03-05T11:48:57.418Z,2.47
2019-03-05T11:51:27.793Z,2.27
2019-03-05T11:53:57.843Z,1.80
2019-03-05T11:56:28.346Z,1.70
2019-03-05T11:58:58.369Z,2.17
2019-03-05T12:01:32.445Z,2.40
2019-03-05T12:04:02.531Z,2.37
2019-03-05T12:06:32.348Z,2.23
2019-03-05T12:09:02.299Z,2.00
2019-03-05T12:11:32.067Z,2.00
2019-03-05T12:14:01.896Z,2.23
2019-03-05T12:16:31.728Z,1.70
2019-03-05T12:19:02.240Z,1.40
2019-03-05T12:21:32.373Z,1.87
2019-03-05T12:24:02.266Z,1.30
2019-03-05T12:26:32.455Z,1.57
2019-03-05T12:29:02.327Z,1.70
2019-03-05T12:31:32.267Z,2.10
2019-03-05T12:34:02.091Z,1.50
2019-03-05T12:36:31.906Z,1.60
2019-03-05T12:39:01.752Z,1.63
2019-03-05T12:41:31.538Z,1.77
2019-03-05T12:44:01.348Z,1.40
2019-03-05T12:46:31.561Z,1.43
2019-03-05T12:49:01.533Z,1.33
2019-03-05T12:51:31.289Z,1.47
2019-03-05T12:54:01.316Z,1.20
2019-03-05T12:56:31.772Z,2.20
2019-03-05T12:59:01.752Z,1.83
2019-03-05T13:01:31.453Z,1.40
2019-03-05T13:04:01.771Z,1.40
2019-03-05T13:06:31.693Z,1.40
2019-03-05T13:09:01.507Z,1.23
2019-03-05T13:11:31.711Z,1.27
2019-03-05T13:14:06.121Z,1.37
2019-03-05T13:16:35.283Z,1.57
2019-03-05T13:19:05.354Z,1.63
2019-03-05T13:21:36.164Z,1.30
2019-03-05T13:24:06.024Z,1.50
2019-03-05T13:26:35.915Z,1.30
2019-03-05T13:29:06.042Z,1.17
2019-03-05T13:31:38.751Z,1.40
2019-03-05T13:34:08.061Z,1.60
2019-03-05T13:36:38.234Z,1.53
2019-03-05T13:39:08.291Z,1.47
2019-03-05T13:41:38.364Z,1.50
2019-03-05T13:44:32.255Z,1.37
2019-03-05T13:47:00.899Z,1.73
2019-03-05T13:50:00.002Z,1.47
2019-03-05T13:53:22.597Z,1.50
2019-03-05T13:56:28.156Z,1.40
2019-03-05T13:59:10.994Z,1.47
2019-03-05T14:01:40.937Z,1.37
2019-03-05T14:04:18.702Z,1.23
2019-03-05T14:07:38.046Z,1.10
2019-03-05T14:10:07.873Z,1.27
2019-03-05T14:12:38.058Z,1.23
2019-03-05T14:15:08.715Z,1.20
2019-03-05T14:17:42.003Z,2.23
2019-03-05T14:20:15.197Z,1.40
2019-03-05T14:22:45.289Z,2.10
2019-03-05T14:25:15.800Z,1.50
2019-03-05T14:27:45.747Z,1.40
2019-03-05T14:30:17.654Z,1.23
2019-03-05T14:32:47.712Z,1.40
2019-03-05T14:35:19.574Z,1.50
2019-03-05T14:37:49.560Z,1.10
2019-03-05T14:40:24.782Z,2.07
2019-03-05T14:42:54.667Z,1.67
2019-03-05T14:45:27.130Z,1.37
2019-03-05T14:47:59.170Z,1.30
2019-03-05T14:50:28.923Z,1.67
2019-03-05T14:52:58.832Z,1.40
2019-03-05T14:55:29.016Z,1.40
2019-03-05T14:57:58.833Z,1.30
2019-03-05T15:00:28.985Z,1.20
2019-03-05T15:02:59.219Z,2.33
2019-03-05T15:05:29.199Z,1.40
2019-03-05T15:07:59.051Z,1.80
2019-03-05T15:10:28.808Z,2.30
2019-03-05T15:12:58.563Z,1.37
2019-03-05T15:15:30.284Z,1.90
2019-03-05T15:18:00.420Z,1.20
2019-03-05T15:20:30.214Z,1.30
2019-03-05T15:23:00.447Z,1.00
2019-03-05T15:25:30.646Z,1.20
2019-03-05T15:28:00.539Z,1.10
2019-03-05T15:30:30.362Z,1.00
2019-03-05T15:33:00.487Z,1.50
2019-03-05T15:35:30.339Z,1.60
2019-03-05T15:38:00.546Z,1.30
2019-03-05T15:40:30.319Z,1.30
2019-03-05T15:43:01.053Z,1.13
2019-03-05T15:45:31.344Z,1.40
2019-03-05T15:48:01.850Z,1.27
2019-03-05T15:50:31.613Z,1.10
2019-03-05T15:53:01.495Z,2.17
2019-03-05T15:55:31.229Z,1.83
2019-03-05T15:58:01.064Z,1.90
2019-03-05T16:00:31.258Z,1.57
2019-03-05T16:03:01.304Z,1.83
2019-03-05T16:05:31.276Z,1.60
2019-03-05T16:08:01.592Z,1.77
2019-03-05T16:10:31.426Z,1.60
2019-03-05T16:13:01.697Z,1.80
2019-03-05T16:15:31.858Z,1.53
2019-03-05T16:18:05.290Z,1.57
2019-03-05T16:20:33.317Z,1.83
2019-03-05T16:23:03.444Z,1.60
2019-03-05T16:25:33.225Z,1.70
2019-03-05T16:28:06.390Z,1.30
2019-03-05T16:30:52.994Z,1.50
2019-03-05T16:33:41.637Z,1.40
2019-03-05T16:36:30.569Z,1.90
2019-03-05T16:39:16.895Z,1.47
2019-03-05T16:42:06.224Z,1.47
2019-03-05T16:44:55.279Z,1.93
2019-03-05T16:47:45.540Z,2.00
2019-03-05T16:50:32.895Z,1.70
2019-03-05T16:53:27.427Z,2.03
2019-03-05T16:56:15.423Z,1.47
2019-03-05T16:59:02.991Z,1.53
2019-03-05T17:02:01.144Z,1.70
2019-03-05T17:05:05.203Z,1.80
2019-03-05T17:07:46.924Z,1.50
2019-03-05T17:10:47.869Z,1.33
2019-03-05T17:13:17.815Z,1.50
2019-03-05T17:15:47.890Z,1.57
2019-03-05T17:18:17.770Z,1.50
2019-03-05T17:20:47.644Z,1.80
2019-03-05T17:23:17.496Z,2.13
2019-03-05T17:25:47.267Z,1.80
2019-03-05T17:28:17.017Z,1.93
2019-03-05T17:30:47.864Z,1.80
2019-03-05T17:33:18.008Z,1.40
2019-03-05T17:35:47.972Z,1.70
2019-03-05T17:38:17.718Z,1.80
2019-03-05T17:40:48.098Z,1.80
2019-03-05T17:43:17.753Z,1.90
2019-03-05T17:45:47.466Z,2.00
2019-03-05T17:48:17.241Z,1.93
2019-03-05T17:50:47.080Z,1.63
2019-03-05T17:53:17.375Z,2.27
2019-03-05T17:55:47.709Z,1.50
2019-03-05T17:58:17.461Z,2.00
2019-03-05T18:00:48.808Z,1.40
2019-03-05T18:03:19.007Z,1.63
2019-03-05T18:05:49.254Z,2.00
2019-03-05T18:08:19.742Z,2.07
2019-03-05T18:10:50.478Z,1.70
2019-03-05T18:13:22.294Z,1.33
2019-03-05T18:15:53.046Z,2.10
2019-03-05T18:18:24.152Z,1.50
2019-03-05T18:20:54.314Z,1.80
2019-03-05T18:23:24.137Z,2.00
2019-03-05T18:25:53.863Z,2.10
2019-03-05T18:28:23.760Z,2.43
2019-03-05T18:30:53.902Z,2.17
2019-03-05T18:33:24.159Z,1.80
2019-03-05T18:35:53.967Z,2.37
2019-03-05T18:38:23.715Z,1.90
2019-03-05T18:40:54.184Z,1.67
2019-03-05T18:43:24.042Z,1.83
2019-03-05T18:45:53.798Z,2.10
2019-03-05T18:48:23.888Z,2.33
2019-03-05T18:50:54.117Z,2.60
2019-03-05T18:53:23.826Z,2.10
2019-03-05T18:55:55.295Z,1.90
2019-03-05T18:58:25.217Z,2.00
2019-03-05T19:00:55.510Z,1.83
2019-03-05T19:03:25.549Z,2.97
2019-03-05T19:05:55.439Z,2.60
2019-03-05T19:08:25.265Z,2.90
2019-03-05T19:10:55.785Z,3.37
2019-03-05T19:13:25.581Z,2.40
2019-03-05T19:15:55.798Z,3.13
2019-03-05T19:18:26.521Z,3.30
2019-03-05T19:20:56.234Z,2.70
2019-03-05T19:23:25.920Z,2.60
2019-03-05T19:25:55.877Z,2.50
2019-03-05T19:28:25.695Z,3.47
2019-03-05T19:30:56.005Z,3.07
2019-03-05T19:33:25.688Z,2.73
2019-03-05T19:35:55.976Z,2.60
2019-03-05T19:38:26.092Z,2.30
2019-03-05T19:40:56.062Z,2.53
2019-03-05T19:43:26.245Z,2.30
2019-03-05T19:45:56.378Z,2.80
2019-03-05T19:48:26.895Z,2.60
2019-03-05T19:50:56.855Z,2.90
2019-03-05T19:53:26.863Z,2.60
2019-03-05T19:55:56.840Z,2.83
2019-03-05T19:58:27.289Z,2.50
2019-03-05T20:01:02.157Z,2.90
2019-03-05T20:03:32.372Z,3.13
2019-03-05T20:06:02.277Z,2.70
2019-03-05T20:08:39.364Z,2.60
2019-03-05T20:11:04.349Z,3.20
2019-03-05T20:13:34.502Z,3.47
2019-03-05T20:16:05.066Z,3.50
2019-03-05T20:18:35.155Z,3.43
2019-03-05T20:21:04.909Z,3.60
2019-03-05T20:23:35.076Z,6.63
2019-03-05T20:26:05.203Z,4.60
2019-03-05T20:28:35.975Z,3.70
2019-03-05T20:31:05.979Z,3.10
2019-03-05T20:33:36.349Z,2.80
2019-03-05T20:36:06.539Z,2.63
2019-03-05T20:38:36.481Z,3.13
2019-03-05T20:41:06.478Z,3.03
2019-03-05T20:43:36.600Z,2.63
2019-03-05T20:46:14.131Z,3.10
2019-03-05T20:48:44.016Z,2.80
2019-03-05T20:51:14.535Z,2.60
2019-03-05T20:53:44.251Z,3.50
2019-03-05T20:56:15.151Z,3.30
2019-03-05T20:58:45.017Z,3.30
2019-03-05T21:01:15.086Z,2.90
2019-03-05T21:03:44.943Z,2.27
2019-03-05T21:06:14.865Z,2.47
2019-03-05T21:08:44.671Z,2.90
2019-03-05T21:11:15.042Z,3.20
2019-03-05T21:13:45.582Z,2.23
2019-03-05T21:16:16.876Z,2.70
2019-03-05T21:18:46.761Z,3.57
2019-03-05T21:21:17.373Z,2.93
2019-03-05T21:23:47.575Z,3.70
2019-03-05T21:26:18.557Z,3.30
2019-03-05T21:28:48.634Z,2.50
2019-03-05T21:31:18.366Z,3.23
2019-03-05T21:33:48.288Z,3.10
2019-03-05T21:36:18.848Z,3.50
2019-03-05T21:38:50.407Z,3.53
2019-03-05T21:41:20.550Z,4.03
2019-03-05T21:43:50.978Z,2.77
2019-03-05T21:46:20.604Z,2.83
2019-03-05T21:48:52.117Z,3.13
2019-03-05T21:51:22.017Z,3.00
2019-03-05T21:53:52.252Z,3.60
2019-03-05T21:56:21.839Z,3.50
2019-03-05T21:58:51.615Z,3.80
2019-03-05T22:01:21.984Z,4.13
2019-03-05T22:03:52.047Z,3.57
2019-03-05T22:06:21.700Z,3.90
2019-03-05T22:08:51.595Z,3.83
2019-03-05T22:11:21.314Z,3.10
2019-03-05T22:13:50.952Z,3.57
2019-03-05T22:16:21.305Z,2.87
2019-03-05T22:18:51.023Z,3.00
2019-03-05T22:21:20.716Z,3.00
2019-03-05T22:23:50.439Z,2.80
2019-03-05T22:26:20.228Z,2.50
2019-03-05T22:28:49.953Z,2.83
2019-03-05T22:31:20.332Z,2.80
2019-03-05T22:33:49.992Z,2.87
2019-03-05T22:36:20.474Z,2.97
2019-03-05T22:38:50.909Z,2.50
2019-03-05T22:41:20.532Z,2.90
2019-03-05T22:43:50.251Z,3.70
2019-03-05T22:46:20.052Z,2.67
2019-03-05T22:48:50.547Z,2.73
2019-03-05T22:51:20.274Z,2.50
2019-03-05T22:53:50.280Z,2.60
2019-03-05T22:56:20.173Z,2.23
2019-03-05T22:58:50.526Z,2.60
2019-03-05T23:01:51.081Z,2.10
2019-03-05T23:04:43.728Z,2.63
2019-03-05T23:07:14.157Z,2.90
2019-03-05T23:09:43.920Z,2.60
2019-03-05T23:12:13.979Z,3.33
2019-03-05T23:14:44.153Z,2.60
2019-03-05T23:17:14.699Z,2.90
2019-03-05T23:19:44.502Z,2.70
2019-03-05T23:22:15.062Z,3.00
2019-03-05T23:24:45.183Z,2.50
2019-03-05T23:27:15.240Z,3.30
2019-03-05T23:29:46.204Z,3.10
2019-03-05T23:32:17.585Z,3.43
2019-03-05T23:34:47.652Z,3.60
2019-03-05T23:37:17.839Z,3.03
2019-03-05T23:39:47.846Z,3.20
2019-03-05T23:42:17.886Z,3.93
2019-03-05T23:44:47.514Z,3.50
2019-03-05T23:47:17.104Z,4.10
2019-03-05T23:49:47.060Z,3.50
2019-03-05T23:52:16.870Z,3.70
2019-03-05T23:54:47.108Z,3.83
2019-03-05T23:57:16.794Z,4.07
2019-03-05T23:59:46.607Z,3.93
